sensor_id;sensor_type;location;lat;lon;timestamp;P1;durP1;ratioP1;P2;durP2;ratioP2
70818;SDS011;58439;51.046;13.692;2023-07-02T00:00:59;3.30;;;1.70;;
70818;SDS011;58439;51.046;13.692;2023-07-02T00:03:29;4.57;;;2.08;;
70818;SDS011;58439;51.046;13.692;2023-07-02T00:05:57;4.72;;;1.70;;
70818;SDS011;58439;51.046;13.692;2023-07-02T00:08:27;5.10;;;1.92;;
70818;SDS011;58439;51.046;13.692;2023-07-02T00:10:54;3.25;;;1.70;;
70818;SDS011;58439;51.046;13.692;2023-07-02T00:13:22;3.50;;;1.40;;
70818;SDS011;58439;51.046;13.692;2023-07-02T00:15:49;4.13;;;1.60;;
70818;SDS011;58439;51.046;13.692;2023-07-02T00:18:19;3.55;;;1.98;;
70818;SDS011;58439;51.046;13.692;2023-07-02T00:23:42;3.20;;;1.50;;
70818;SDS011;58439;51.046;13.692;2023-07-02T00:26:09;2.75;;;1.40;;
70818;SDS011;58439;51.046;13.692;2023-07-02T00:28:42;3.47;;;1.42;;
70818;SDS011;58439;51.046;13.692;2023-07-02T00:32:15;3.17;;;1.70;;
70818;SDS011;58439;51.046;13.692;2023-07-02T00:35:06;3.00;;;1.58;;
70818;SDS011;58439;51.046;13.692;2023-07-02T00:38:05;4.78;;;1.42;;
70818;SDS011;58439;51.046;13.692;2023-07-02T00:40:46;2.50;;;1.50;;
70818;SDS011;58439;51.046;13.692;2023-07-02T00:43:27;2.47;;;1.50;;
70818;SDS011;58439;51.046;13.692;2023-07-02T00:46:05;3.35;;;1.52;;
70818;SDS011;58439;51.046;13.692;2023-07-02T00:48:36;3.00;;;1.35;;
70818;SDS011;58439;51.046;13.692;2023-07-02T00:51:11;3.92;;;1.40;;
70818;SDS011;58439;51.046;13.692;2023-07-02T00:53:56;5.32;;;1.70;;
70818;SDS011;58439;51.046;13.692;2023-07-02T00:56:45;3.63;;;1.15;;
70818;SDS011;58439;51.046;13.692;2023-07-02T00:59:21;4.05;;;1.33;;
70818;SDS011;58439;51.046;13.692;2023-07-02T01:02:14;2.47;;;1.25;;
70818;SDS011;58439;51.046;13.692;2023-07-02T01:04:54;3.15;;;1.42;;
70818;SDS011;58439;51.046;13.692;2023-07-02T01:07:39;2.88;;;1.48;;
70818;SDS011;58439;51.046;13.692;2023-07-02T01:10:08;3.53;;;1.52;;
70818;SDS011;58439;51.046;13.692;2023-07-02T01:13:09;1.70;;;1.17;;
70818;SDS011;58439;51.046;13.692;2023-07-02T01:16:09;2.13;;;1.30;;
70818;SDS011;58439;51.046;13.692;2023-07-02T01:19:21;3.15;;;1.35;;
70818;SDS011;58439;51.046;13.692;2023-07-02T01:22:38;2.20;;;1.23;;
70818;SDS011;58439;51.046;13.692;2023-07-02T01:25:30;3.42;;;1.30;;
70818;SDS011;58439;51.046;13.692;2023-07-02T01:28:15;3.33;;;1.50;;
70818;SDS011;58439;51.046;13.692;2023-07-02T01:31:29;4.80;;;1.52;;
70818;SDS011;58439;51.046;13.692;2023-07-02T01:34:01;2.75;;;1.35;;
70818;SDS011;58439;51.046;13.692;2023-07-02T01:36:46;2.30;;;1.33;;
70818;SDS011;58439;51.046;13.692;2023-07-02T01:39:22;3.15;;;1.65;;
70818;SDS011;58439;51.046;13.692;2023-07-02T01:42:07;2.03;;;1.23;;
70818;SDS011;58439;51.046;13.692;2023-07-02T01:44:43;3.45;;;1.30;;
70818;SDS011;58439;51.046;13.692;2023-07-02T01:47:44;2.03;;;1.00;;
70818;SDS011;58439;51.046;13.692;2023-07-02T01:50:46;2.13;;;1.40;;
70818;SDS011;58439;51.046;13.692;2023-07-02T01:53:28;2.37;;;1.43;;
70818;SDS011;58439;51.046;13.692;2023-07-02T01:56:20;2.03;;;1.35;;
70818;SDS011;58439;51.046;13.692;2023-07-02T01:58:58;1.85;;;1.17;;
70818;SDS011;58439;51.046;13.692;2023-07-02T02:05:34;3.88;;;1.40;;
70818;SDS011;58439;51.046;13.692;2023-07-02T02:08:09;1.60;;;1.15;;
70818;SDS011;58439;51.046;13.692;2023-07-02T02:10:37;2.40;;;1.30;;
70818;SDS011;58439;51.046;13.692;2023-07-02T02:13:06;2.00;;;1.30;;
70818;SDS011;58439;51.046;13.692;2023-07-02T02:15:33;2.35;;;1.50;;
70818;SDS011;58439;51.046;13.692;2023-07-02T02:18:03;2.40;;;1.17;;
70818;SDS011;58439;51.046;13.692;2023-07-02T02:20:30;3.08;;;1.50;;
70818;SDS011;58439;51.046;13.692;2023-07-02T02:23:14;3.63;;;1.60;;
70818;SDS011;58439;51.046;13.692;2023-07-02T02:25:41;2.22;;;1.10;;
70818;SDS011;58439;51.046;13.692;2023-07-02T02:28:20;3.45;;;1.90;;
70818;SDS011;58439;51.046;13.692;2023-07-02T02:30:57;4.18;;;1.60;;
70818;SDS011;58439;51.046;13.692;2023-07-02T02:33:27;3.63;;;1.33;;
70818;SDS011;58439;51.046;13.692;2023-07-02T02:35:54;2.15;;;1.38;;
70818;SDS011;58439;51.046;13.692;2023-07-02T02:38:47;2.97;;;1.58;;
70818;SDS011;58439;51.046;13.692;2023-07-02T02:41:22;2.13;;;1.35;;
70818;SDS011;58439;51.046;13.692;2023-07-02T02:44:25;2.88;;;1.45;;
70818;SDS011;58439;51.046;13.692;2023-07-02T02:46:59;2.45;;;1.42;;
70818;SDS011;58439;51.046;13.692;2023-07-02T02:49:32;3.70;;;1.50;;
70818;SDS011;58439;51.046;13.692;2023-07-02T02:52:08;2.35;;;1.50;;
70818;SDS011;58439;51.046;13.692;2023-07-02T02:54:46;2.60;;;1.55;;
70818;SDS011;58439;51.046;13.692;2023-07-02T02:58:14;5.68;;;1.48;;
70818;SDS011;58439;51.046;13.692;2023-07-02T03:01:01;2.33;;;1.50;;
70818;SDS011;58439;51.046;13.692;2023-07-02T03:03:54;3.03;;;1.60;;
70818;SDS011;58439;51.046;13.692;2023-07-02T03:06:25;2.63;;;1.48;;
70818;SDS011;58439;51.046;13.692;2023-07-02T03:09:55;3.72;;;1.67;;
70818;SDS011;58439;51.046;13.692;2023-07-02T03:12:29;2.60;;;1.48;;
70818;SDS011;58439;51.046;13.692;2023-07-02T03:15:03;5.05;;;1.63;;
70818;SDS011;58439;51.046;13.692;2023-07-02T03:25:11;2.55;;;1.52;;
70818;SDS011;58439;51.046;13.692;2023-07-02T03:28:37;5.10;;;1.90;;
70818;SDS011;58439;51.046;13.692;2023-07-02T03:31:11;2.90;;;1.35;;
70818;SDS011;58439;51.046;13.692;2023-07-02T03:34:39;3.20;;;1.42;;
70818;SDS011;58439;51.046;13.692;2023-07-02T03:37:26;3.70;;;1.60;;
70818;SDS011;58439;51.046;13.692;2023-07-02T03:39:59;2.70;;;1.50;;
70818;SDS011;58439;51.046;13.692;2023-07-02T03:42:36;2.90;;;1.50;;
70818;SDS011;58439;51.046;13.692;2023-07-02T03:49:40;2.42;;;1.70;;
70818;SDS011;58439;51.046;13.692;2023-07-02T03:52:21;2.50;;;1.48;;
70818;SDS011;58439;51.046;13.692;2023-07-02T03:54:54;4.18;;;2.25;;
70818;SDS011;58439;51.046;13.692;2023-07-02T03:57:24;2.85;;;1.60;;
70818;SDS011;58439;51.046;13.692;2023-07-02T04:00:31;6.70;;;2.00;;
70818;SDS011;58439;51.046;13.692;2023-07-02T04:02:58;3.75;;;1.98;;
70818;SDS011;58439;51.046;13.692;2023-07-02T04:05:32;4.78;;;2.60;;
70818;SDS011;58439;51.046;13.692;2023-07-02T04:07:59;6.00;;;2.13;;
70818;SDS011;58439;51.046;13.692;2023-07-02T04:10:43;6.28;;;2.40;;
70818;SDS011;58439;51.046;13.692;2023-07-02T04:13:28;5.47;;;1.98;;
70818;SDS011;58439;51.046;13.692;2023-07-02T04:15:55;10.82;;;2.20;;
70818;SDS011;58439;51.046;13.692;2023-07-02T04:18:27;3.53;;;1.97;;
70818;SDS011;58439;51.046;13.692;2023-07-02T04:20:56;6.03;;;2.00;;
70818;SDS011;58439;51.046;13.692;2023-07-02T04:23:31;3.75;;;2.33;;
70818;SDS011;58439;51.046;13.692;2023-07-02T04:25:58;5.38;;;2.13;;
70818;SDS011;58439;51.046;13.692;2023-07-02T04:29:17;8.23;;;2.10;;
70818;SDS011;58439;51.046;13.692;2023-07-02T04:32:04;6.20;;;2.50;;
70818;SDS011;58439;51.046;13.692;2023-07-02T04:34:32;5.57;;;2.40;;
70818;SDS011;58439;51.046;13.692;2023-07-02T04:37:06;6.75;;;2.00;;
70818;SDS011;58439;51.046;13.692;2023-07-02T04:42:02;3.20;;;2.10;;
70818;SDS011;58439;51.046;13.692;2023-07-02T04:44:30;4.28;;;2.28;;
70818;SDS011;58439;51.046;13.692;2023-07-02T04:46:57;3.00;;;2.33;;
70818;SDS011;58439;51.046;13.692;2023-07-02T04:49:28;4.97;;;2.40;;
70818;SDS011;58439;51.046;13.692;2023-07-02T04:51:55;3.78;;;2.30;;
70818;SDS011;58439;51.046;13.692;2023-07-02T04:54:22;5.63;;;2.30;;
70818;SDS011;58439;51.046;13.692;2023-07-02T04:56:49;5.63;;;2.30;;
70818;SDS011;58439;51.046;13.692;2023-07-02T04:59:17;4.35;;;2.22;;
70818;SDS011;58439;51.046;13.692;2023-07-02T05:01:48;6.78;;;2.25;;
70818;SDS011;58439;51.046;13.692;2023-07-02T05:04:18;6.00;;;2.35;;
70818;SDS011;58439;51.046;13.692;2023-07-02T05:06:46;5.05;;;2.65;;
70818;SDS011;58439;51.046;13.692;2023-07-02T05:09:13;9.10;;;2.33;;
70818;SDS011;58439;51.046;13.692;2023-07-02T05:11:40;6.78;;;2.40;;
70818;SDS011;58439;51.046;13.692;2023-07-02T05:14:08;5.53;;;2.53;;
70818;SDS011;58439;51.046;13.692;2023-07-02T05:16:35;4.70;;;2.70;;
70818;SDS011;58439;51.046;13.692;2023-07-02T05:19:26;4.55;;;2.28;;
70818;SDS011;58439;51.046;13.692;2023-07-02T05:22:12;4.47;;;2.22;;
70818;SDS011;58439;51.046;13.692;2023-07-02T05:24:52;4.20;;;2.25;;
70818;SDS011;58439;51.046;13.692;2023-07-02T05:27:33;7.57;;;2.30;;
70818;SDS011;58439;51.046;13.692;2023-07-02T05:30:05;6.35;;;2.55;;
70818;SDS011;58439;51.046;13.692;2023-07-02T05:32:37;4.50;;;2.37;;
70818;SDS011;58439;51.046;13.692;2023-07-02T05:36:22;3.88;;;2.08;;
70818;SDS011;58439;51.046;13.692;2023-07-02T05:39:21;5.88;;;2.50;;
70818;SDS011;58439;51.046;13.692;2023-07-02T05:42:27;2.65;;;2.00;;
70818;SDS011;58439;51.046;13.692;2023-07-02T05:45:38;3.53;;;2.30;;
70818;SDS011;58439;51.046;13.692;2023-07-02T05:48:57;4.47;;;2.30;;
70818;SDS011;58439;51.046;13.692;2023-07-02T05:51:45;4.72;;;2.50;;
70818;SDS011;58439;51.046;13.692;2023-07-02T05:55:11;3.58;;;2.00;;
70818;SDS011;58439;51.046;13.692;2023-07-02T05:58:27;4.07;;;2.03;;
70818;SDS011;58439;51.046;13.692;2023-07-02T06:01:46;7.43;;;2.40;;
70818;SDS011;58439;51.046;13.692;2023-07-02T06:04:56;5.75;;;2.38;;
70818;SDS011;58439;51.046;13.692;2023-07-02T06:08:51;5.25;;;2.75;;
70818;SDS011;58439;51.046;13.692;2023-07-02T06:19:58;5.95;;;2.45;;
70818;SDS011;58439;51.046;13.692;2023-07-02T06:28:23;9.52;;;3.17;;
70818;SDS011;58439;51.046;13.692;2023-07-02T06:31:21;4.20;;;2.50;;
70818;SDS011;58439;51.046;13.692;2023-07-02T06:34:22;6.50;;;2.70;;
70818;SDS011;58439;51.046;13.692;2023-07-02T06:36:52;8.45;;;2.92;;
70818;SDS011;58439;51.046;13.692;2023-07-02T06:39:48;4.57;;;2.55;;
70818;SDS011;58439;51.046;13.692;2023-07-02T06:42:23;4.47;;;2.40;;
70818;SDS011;58439;51.046;13.692;2023-07-02T06:45:29;5.03;;;2.30;;
70818;SDS011;58439;51.046;13.692;2023-07-02T06:48:16;3.33;;;2.00;;
70818;SDS011;58439;51.046;13.692;2023-07-02T06:50:56;3.85;;;2.13;;
70818;SDS011;58439;51.046;13.692;2023-07-02T06:54:39;3.00;;;2.10;;
70818;SDS011;58439;51.046;13.692;2023-07-02T06:57:34;3.50;;;2.10;;
70818;SDS011;58439;51.046;13.692;2023-07-02T07:00:25;7.03;;;2.40;;
70818;SDS011;58439;51.046;13.692;2023-07-02T07:03:25;4.93;;;2.28;;
70818;SDS011;58439;51.046;13.692;2023-07-02T07:06:34;3.17;;;2.10;;
70818;SDS011;58439;51.046;13.692;2023-07-02T07:09:43;6.07;;;2.40;;
70818;SDS011;58439;51.046;13.692;2023-07-02T07:12:54;3.42;;;2.00;;
70818;SDS011;58439;51.046;13.692;2023-07-02T07:16:08;5.00;;;3.03;;
70818;SDS011;58439;51.046;13.692;2023-07-02T07:18:35;7.00;;;2.72;;
70818;SDS011;58439;51.046;13.692;2023-07-02T07:21:16;4.13;;;2.97;;
70818;SDS011;58439;51.046;13.692;2023-07-02T07:23:46;3.67;;;2.88;;
70818;SDS011;58439;51.046;13.692;2023-07-02T07:26:15;5.70;;;3.00;;
70818;SDS011;58439;51.046;13.692;2023-07-02T07:28:43;6.53;;;3.10;;
70818;SDS011;58439;51.046;13.692;2023-07-02T07:31:10;5.43;;;2.97;;
70818;SDS011;58439;51.046;13.692;2023-07-02T07:33:37;7.75;;;3.17;;
70818;SDS011;58439;51.046;13.692;2023-07-02T07:36:05;5.18;;;2.80;;
70818;SDS011;58439;51.046;13.692;2023-07-02T07:38:45;4.60;;;2.90;;
70818;SDS011;58439;51.046;13.692;2023-07-02T07:41:15;3.70;;;2.75;;
70818;SDS011;58439;51.046;13.692;2023-07-02T07:43:51;4.10;;;2.97;;
70818;SDS011;58439;51.046;13.692;2023-07-02T07:46:18;4.70;;;2.60;;
70818;SDS011;58439;51.046;13.692;2023-07-02T07:48:49;5.65;;;3.10;;
70818;SDS011;58439;51.046;13.692;2023-07-02T07:51:35;4.53;;;2.55;;
70818;SDS011;58439;51.046;13.692;2023-07-02T07:54:13;5.18;;;2.78;;
70818;SDS011;58439;51.046;13.692;2023-07-02T07:56:40;4.80;;;2.42;;
70818;SDS011;58439;51.046;13.692;2023-07-02T07:59:33;6.53;;;2.58;;
70818;SDS011;58439;51.046;13.692;2023-07-02T08:02:20;4.35;;;2.08;;
70818;SDS011;58439;51.046;13.692;2023-07-02T08:05:10;5.13;;;2.83;;
70818;SDS011;58439;51.046;13.692;2023-07-02T08:07:38;3.70;;;1.98;;
70818;SDS011;58439;51.046;13.692;2023-07-02T08:10:09;4.47;;;2.05;;
70818;SDS011;58439;51.046;13.692;2023-07-02T08:12:46;3.47;;;1.90;;
70818;SDS011;58439;51.046;13.692;2023-07-02T08:15:14;4.90;;;2.00;;
70818;SDS011;58439;51.046;13.692;2023-07-02T08:17:41;2.80;;;2.08;;
70818;SDS011;58439;51.046;13.692;2023-07-02T08:20:15;3.85;;;1.95;;
70818;SDS011;58439;51.046;13.692;2023-07-02T08:22:43;3.97;;;2.22;;
70818;SDS011;58439;51.046;13.692;2023-07-02T08:25:10;3.88;;;1.80;;
70818;SDS011;58439;51.046;13.692;2023-07-02T08:27:37;4.50;;;2.65;;
70818;SDS011;58439;51.046;13.692;2023-07-02T08:30:05;4.50;;;2.20;;
70818;SDS011;58439;51.046;13.692;2023-07-02T08:32:32;6.07;;;2.38;;
70818;SDS011;58439;51.046;13.692;2023-07-02T08:35:00;2.97;;;2.13;;
70818;SDS011;58439;51.046;13.692;2023-07-02T08:37:27;7.82;;;2.25;;
70818;SDS011;58439;51.046;13.692;2023-07-02T08:39:55;5.78;;;2.10;;
70818;SDS011;58439;51.046;13.692;2023-07-02T08:42:22;4.15;;;2.22;;
70818;SDS011;58439;51.046;13.692;2023-07-02T08:44:53;7.40;;;2.30;;
70818;SDS011;58439;51.046;13.692;2023-07-02T08:47:30;4.47;;;1.98;;
70818;SDS011;58439;51.046;13.692;2023-07-02T08:51:03;2.95;;;1.60;;
70818;SDS011;58439;51.046;13.692;2023-07-02T08:53:31;5.40;;;1.88;;
70818;SDS011;58439;51.046;13.692;2023-07-02T08:56:00;3.00;;;1.55;;
70818;SDS011;58439;51.046;13.692;2023-07-02T08:58:29;2.70;;;1.75;;
70818;SDS011;58439;51.046;13.692;2023-07-02T09:03:38;3.75;;;2.08;;
70818;SDS011;58439;51.046;13.692;2023-07-02T09:06:07;4.53;;;1.88;;
70818;SDS011;58439;51.046;13.692;2023-07-02T09:17:32;2.97;;;1.73;;
70818;SDS011;58439;51.046;13.692;2023-07-02T09:20:11;3.97;;;1.80;;
70818;SDS011;58439;51.046;13.692;2023-07-02T09:22:53;2.42;;;1.80;;
70818;SDS011;58439;51.046;13.692;2023-07-02T09:25:21;2.63;;;1.60;;
70818;SDS011;58439;51.046;13.692;2023-07-02T09:27:49;3.17;;;1.40;;
70818;SDS011;58439;51.046;13.692;2023-07-02T09:30:16;3.88;;;1.45;;
70818;SDS011;58439;51.046;13.692;2023-07-02T09:32:44;3.47;;;1.73;;
70818;SDS011;58439;51.046;13.692;2023-07-02T09:35:20;3.97;;;1.92;;
70818;SDS011;58439;51.046;13.692;2023-07-02T09:37:58;3.25;;;1.40;;
70818;SDS011;58439;51.046;13.692;2023-07-02T09:40:37;2.75;;;1.55;;
70818;SDS011;58439;51.046;13.692;2023-07-02T09:43:15;3.75;;;1.45;;
70818;SDS011;58439;51.046;13.692;2023-07-02T09:45:47;2.67;;;1.50;;
70818;SDS011;58439;51.046;13.692;2023-07-02T09:52:59;4.28;;;1.70;;
70818;SDS011;58439;51.046;13.692;2023-07-02T10:10:33;3.22;;;1.80;;
70818;SDS011;58439;51.046;13.692;2023-07-02T10:14:42;2.65;;;1.60;;
70818;SDS011;58439;51.046;13.692;2023-07-02T10:17:11;4.32;;;1.98;;
70818;SDS011;58439;51.046;13.692;2023-07-02T10:20:02;2.47;;;1.40;;
70818;SDS011;58439;51.046;13.692;2023-07-02T10:26:33;2.78;;;1.60;;
70818;SDS011;58439;51.046;13.692;2023-07-02T10:29:01;6.28;;;1.83;;
70818;SDS011;58439;51.046;13.692;2023-07-02T10:31:28;3.70;;;1.48;;
70818;SDS011;58439;51.046;13.692;2023-07-02T11:48:38;2.72;;;1.50;;
70818;SDS011;58439;51.046;13.692;2023-07-02T12:04:04;4.22;;;1.50;;
70818;SDS011;58439;51.046;13.692;2023-07-02T12:12:42;5.63;;;1.38;;
70818;SDS011;58439;51.046;13.692;2023-07-02T12:16:39;4.93;;;1.90;;
70818;SDS011;58439;51.046;13.692;2023-07-02T12:20:08;4.47;;;1.60;;
70818;SDS011;58439;51.046;13.692;2023-07-02T12:22:44;4.85;;;1.70;;
70818;SDS011;58439;51.046;13.692;2023-07-02T12:26:26;3.92;;;1.35;;
70818;SDS011;58439;51.046;13.692;2023-07-02T12:50:31;4.57;;;1.90;;
70818;SDS011;58439;51.046;13.692;2023-07-02T12:53:32;3.90;;;1.85;;
70818;SDS011;58439;51.046;13.692;2023-07-02T12:57:29;3.33;;;1.85;;
70818;SDS011;58439;51.046;13.692;2023-07-02T13:01:43;2.63;;;1.60;;
70818;SDS011;58439;51.046;13.692;2023-07-02T13:04:24;5.28;;;1.80;;
70818;SDS011;58439;51.046;13.692;2023-07-02T13:06:54;4.47;;;1.80;;
70818;SDS011;58439;51.046;13.692;2023-07-02T13:09:22;5.30;;;1.55;;
70818;SDS011;58439;51.046;13.692;2023-07-02T13:11:49;4.78;;;2.10;;
70818;SDS011;58439;51.046;13.692;2023-07-02T13:14:16;3.65;;;1.80;;
70818;SDS011;58439;51.046;13.692;2023-07-02T13:16:44;5.53;;;2.05;;
70818;SDS011;58439;51.046;13.692;2023-07-02T13:19:12;7.93;;;2.65;;
70818;SDS011;58439;51.046;13.692;2023-07-02T13:21:40;6.13;;;2.60;;
70818;SDS011;58439;51.046;13.692;2023-07-02T13:24:07;11.50;;;2.83;;
70818;SDS011;58439;51.046;13.692;2023-07-02T13:26:34;7.05;;;2.63;;
70818;SDS011;58439;51.046;13.692;2023-07-02T13:29:01;5.75;;;2.40;;
70818;SDS011;58439;51.046;13.692;2023-07-02T13:31:29;5.53;;;2.80;;
70818;SDS011;58439;51.046;13.692;2023-07-02T13:37:17;6.97;;;2.83;;
70818;SDS011;58439;51.046;13.692;2023-07-02T13:39:45;8.00;;;2.60;;
70818;SDS011;58439;51.046;13.692;2023-07-02T13:42:14;8.68;;;2.80;;
70818;SDS011;58439;51.046;13.692;2023-07-02T13:45:04;7.57;;;2.90;;
70818;SDS011;58439;51.046;13.692;2023-07-02T13:47:32;12.60;;;2.78;;
70818;SDS011;58439;51.046;13.692;2023-07-02T13:50:00;5.97;;;2.35;;
70818;SDS011;58439;51.046;13.692;2023-07-02T13:52:46;6.18;;;2.50;;
70818;SDS011;58439;51.046;13.692;2023-07-02T13:55:16;6.78;;;2.55;;
70818;SDS011;58439;51.046;13.692;2023-07-02T13:57:43;4.72;;;2.28;;
70818;SDS011;58439;51.046;13.692;2023-07-02T14:00:33;7.07;;;2.20;;
70818;SDS011;58439;51.046;13.692;2023-07-02T14:03:07;8.65;;;2.85;;
70818;SDS011;58439;51.046;13.692;2023-07-02T14:05:35;7.35;;;2.65;;
70818;SDS011;58439;51.046;13.692;2023-07-02T14:08:07;5.30;;;2.45;;
70818;SDS011;58439;51.046;13.692;2023-07-02T14:10:36;5.45;;;2.72;;
70818;SDS011;58439;51.046;13.692;2023-07-02T14:13:03;7.05;;;2.67;;
70818;SDS011;58439;51.046;13.692;2023-07-02T14:15:39;5.63;;;2.65;;
70818;SDS011;58439;51.046;13.692;2023-07-02T14:18:06;7.95;;;2.83;;
70818;SDS011;58439;51.046;13.692;2023-07-02T14:20:33;5.47;;;2.40;;
70818;SDS011;58439;51.046;13.692;2023-07-02T14:23:01;5.78;;;3.00;;
70818;SDS011;58439;51.046;13.692;2023-07-02T14:25:28;8.60;;;2.92;;
70818;SDS011;58439;51.046;13.692;2023-07-02T14:33:07;7.30;;;2.60;;
70818;SDS011;58439;51.046;13.692;2023-07-02T14:36:33;9.82;;;2.95;;
70818;SDS011;58439;51.046;13.692;2023-07-02T14:43:39;7.60;;;2.92;;
70818;SDS011;58439;51.046;13.692;2023-07-02T14:47:38;7.75;;;3.30;;
70818;SDS011;58439;51.046;13.692;2023-07-02T15:00:16;8.18;;;4.15;;
70818;SDS011;58439;51.046;13.692;2023-07-02T15:08:54;8.98;;;3.97;;
70818;SDS011;58439;51.046;13.692;2023-07-02T15:12:53;11.70;;;3.60;;
70818;SDS011;58439;51.046;13.692;2023-07-02T15:16:13;7.95;;;3.88;;
70818;SDS011;58439;51.046;13.692;2023-07-02T15:24:16;7.63;;;4.30;;
70818;SDS011;58439;51.046;13.692;2023-07-02T15:28:05;10.73;;;4.32;;
70818;SDS011;58439;51.046;13.692;2023-07-02T15:32:14;9.63;;;5.20;;
70818;SDS011;58439;51.046;13.692;2023-07-02T15:36:12;10.82;;;5.15;;
70818;SDS011;58439;51.046;13.692;2023-07-02T15:39:57;12.18;;;5.05;;
70818;SDS011;58439;51.046;13.692;2023-07-02T15:43:19;10.60;;;5.05;;
70818;SDS011;58439;51.046;13.692;2023-07-02T15:46:48;8.45;;;3.97;;
70818;SDS011;58439;51.046;13.692;2023-07-02T15:54:58;13.85;;;5.88;;
70818;SDS011;58439;51.046;13.692;2023-07-02T15:58:05;16.13;;;5.63;;
70818;SDS011;58439;51.046;13.692;2023-07-02T16:01:21;10.32;;;5.18;;
70818;SDS011;58439;51.046;13.692;2023-07-02T16:05:19;13.23;;;6.25;;
70818;SDS011;58439;51.046;13.692;2023-07-02T16:07:57;9.25;;;5.50;;
70818;SDS011;58439;51.046;13.692;2023-07-02T16:10:55;10.98;;;5.63;;
70818;SDS011;58439;51.046;13.692;2023-07-02T16:15:19;12.40;;;6.20;;
70818;SDS011;58439;51.046;13.692;2023-07-02T16:17:55;12.52;;;5.70;;
70818;SDS011;58439;51.046;13.692;2023-07-02T16:20:35;11.90;;;5.85;;
70818;SDS011;58439;51.046;13.692;2023-07-02T16:23:30;15.13;;;6.53;;
70818;SDS011;58439;51.046;13.692;2023-07-02T16:26:29;10.43;;;6.15;;
70818;SDS011;58439;51.046;13.692;2023-07-02T16:32:31;11.88;;;6.40;;
70818;SDS011;58439;51.046;13.692;2023-07-02T16:45:57;16.33;;;6.95;;
70818;SDS011;58439;51.046;13.692;2023-07-02T16:49:10;14.32;;;6.60;;
70818;SDS011;58439;51.046;13.692;2023-07-02T16:57:33;14.63;;;7.30;;
70818;SDS011;58439;51.046;13.692;2023-07-02T17:00:15;15.43;;;6.85;;
70818;SDS011;58439;51.046;13.692;2023-07-02T17:03:07;23.08;;;7.63;;
70818;SDS011;58439;51.046;13.692;2023-07-02T17:09:55;14.02;;;7.20;;
70818;SDS011;58439;51.046;13.692;2023-07-02T17:12:50;11.10;;;6.22;;
70818;SDS011;58439;51.046;13.692;2023-07-02T17:15:29;14.30;;;7.13;;
70818;SDS011;58439;51.046;13.692;2023-07-02T17:21:28;16.00;;;7.75;;
70818;SDS011;58439;51.046;13.692;2023-07-02T17:24:49;18.13;;;7.22;;
70818;SDS011;58439;51.046;13.692;2023-07-02T17:27:42;17.73;;;7.32;;
70818;SDS011;58439;51.046;13.692;2023-07-02T17:30:44;17.50;;;7.70;;
70818;SDS011;58439;51.046;13.692;2023-07-02T17:33:19;14.90;;;7.68;;
70818;SDS011;58439;51.046;13.692;2023-07-02T17:35:49;15.20;;;7.75;;
70818;SDS011;58439;51.046;13.692;2023-07-02T17:38:25;22.02;;;7.65;;
70818;SDS011;58439;51.046;13.692;2023-07-02T17:41:09;19.17;;;7.72;;
70818;SDS011;58439;51.046;13.692;2023-07-02T17:43:52;14.68;;;7.63;;
70818;SDS011;58439;51.046;13.692;2023-07-02T17:46:59;18.30;;;8.30;;
70818;SDS011;58439;51.046;13.692;2023-07-02T17:49:37;18.10;;;7.70;;
70818;SDS011;58439;51.046;13.692;2023-07-02T17:55:41;16.00;;;7.35;;
70818;SDS011;58439;51.046;13.692;2023-07-02T17:58:15;18.75;;;8.05;;
70818;SDS011;58439;51.046;13.692;2023-07-02T18:00:42;14.93;;;8.15;;
70818;SDS011;58439;51.046;13.692;2023-07-02T18:03:10;13.25;;;8.35;;
70818;SDS011;58439;51.046;13.692;2023-07-02T18:05:40;17.25;;;8.10;;
70818;SDS011;58439;51.046;13.692;2023-07-02T18:08:08;19.55;;;8.43;;
70818;SDS011;58439;51.046;13.692;2023-07-02T18:10:38;18.52;;;8.38;;
70818;SDS011;58439;51.046;13.692;2023-07-02T18:13:08;16.17;;;8.75;;
70818;SDS011;58439;51.046;13.692;2023-07-02T18:15:44;19.90;;;8.98;;
70818;SDS011;58439;51.046;13.692;2023-07-02T18:18:26;20.48;;;9.07;;
70818;SDS011;58439;51.046;13.692;2023-07-02T18:21:03;17.95;;;8.02;;
70818;SDS011;58439;51.046;13.692;2023-07-02T18:23:32;18.23;;;8.02;;
70818;SDS011;58439;51.046;13.692;2023-07-02T18:26:10;15.27;;;7.80;;
70818;SDS011;58439;51.046;13.692;2023-07-02T18:28:37;16.38;;;8.65;;
70818;SDS011;58439;51.046;13.692;2023-07-02T18:31:21;19.40;;;8.80;;
70818;SDS011;58439;51.046;13.692;2023-07-02T18:34:54;19.42;;;9.05;;
70818;SDS011;58439;51.046;13.692;2023-07-02T18:37:22;19.40;;;8.30;;
70818;SDS011;58439;51.046;13.692;2023-07-02T18:39:55;23.83;;;8.32;;
70818;SDS011;58439;51.046;13.692;2023-07-02T18:42:27;15.30;;;7.97;;
70818;SDS011;58439;51.046;13.692;2023-07-02T18:45:03;18.30;;;8.93;;
70818;SDS011;58439;51.046;13.692;2023-07-02T18:47:49;21.45;;;8.68;;
70818;SDS011;58439;51.046;13.692;2023-07-02T18:51:21;17.88;;;9.05;;
70818;SDS011;58439;51.046;13.692;2023-07-02T18:54:04;20.10;;;8.63;;
70818;SDS011;58439;51.046;13.692;2023-07-02T18:56:34;20.88;;;9.25;;
70818;SDS011;58439;51.046;13.692;2023-07-02T18:59:01;19.40;;;8.85;;
70818;SDS011;58439;51.046;13.692;2023-07-02T19:01:40;18.13;;;8.85;;
70818;SDS011;58439;51.046;13.692;2023-07-02T19:04:15;20.60;;;8.75;;
70818;SDS011;58439;51.046;13.692;2023-07-02T19:06:43;24.00;;;8.48;;
70818;SDS011;58439;51.046;13.692;2023-07-02T19:09:10;17.80;;;8.30;;
70818;SDS011;58439;51.046;13.692;2023-07-02T19:11:40;17.23;;;8.68;;
70818;SDS011;58439;51.046;13.692;2023-07-02T19:14:09;19.98;;;9.35;;
70818;SDS011;58439;51.046;13.692;2023-07-02T19:16:37;21.75;;;9.32;;
70818;SDS011;58439;51.046;13.692;2023-07-02T19:19:04;20.77;;;8.93;;
70818;SDS011;58439;51.046;13.692;2023-07-02T19:21:32;20.88;;;8.85;;
70818;SDS011;58439;51.046;13.692;2023-07-02T19:24:06;16.58;;;9.25;;
70818;SDS011;58439;51.046;13.692;2023-07-02T19:26:41;17.92;;;9.25;;
70818;SDS011;58439;51.046;13.692;2023-07-02T19:29:29;20.20;;;8.73;;
70818;SDS011;58439;51.046;13.692;2023-07-02T19:32:34;22.58;;;9.07;;
70818;SDS011;58439;51.046;13.692;2023-07-02T19:35:04;19.30;;;10.03;;
70818;SDS011;58439;51.046;13.692;2023-07-02T19:37:53;18.00;;;9.07;;
70818;SDS011;58439;51.046;13.692;2023-07-02T19:40:41;19.70;;;9.65;;
70818;SDS011;58439;51.046;13.692;2023-07-02T19:44:02;18.63;;;9.52;;
70818;SDS011;58439;51.046;13.692;2023-07-02T19:47:34;17.27;;;8.25;;
70818;SDS011;58439;51.046;13.692;2023-07-02T19:50:13;18.15;;;8.75;;
70818;SDS011;58439;51.046;13.692;2023-07-02T19:53:00;16.23;;;8.98;;
70818;SDS011;58439;51.046;13.692;2023-07-02T19:56:14;18.95;;;9.55;;
70818;SDS011;58439;51.046;13.692;2023-07-02T19:58:56;22.75;;;9.65;;
70818;SDS011;58439;51.046;13.692;2023-07-02T20:01:46;19.27;;;8.68;;
70818;SDS011;58439;51.046;13.692;2023-07-02T20:04:37;20.75;;;9.50;;
70818;SDS011;58439;51.046;13.692;2023-07-02T20:07:37;15.77;;;8.80;;
70818;SDS011;58439;51.046;13.692;2023-07-02T20:10:11;21.15;;;9.73;;
70818;SDS011;58439;51.046;13.692;2023-07-02T20:12:59;21.33;;;9.85;;
70818;SDS011;58439;51.046;13.692;2023-07-02T20:15:37;18.13;;;9.05;;
70818;SDS011;58439;51.046;13.692;2023-07-02T20:18:08;21.13;;;8.95;;
70818;SDS011;58439;51.046;13.692;2023-07-02T20:20:50;20.45;;;9.45;;
70818;SDS011;58439;51.046;13.692;2023-07-02T20:23:20;20.08;;;9.60;;
70818;SDS011;58439;51.046;13.692;2023-07-02T20:25:55;18.25;;;9.05;;
70818;SDS011;58439;51.046;13.692;2023-07-02T20:29:13;18.45;;;9.05;;